Time;durP1;ratioP1;P1;durP2;ratioP2;P2;SDS_P1;SDS_P2;PMS_P1;PMS_P2;Temp;Humidity;BMP_temperature;BMP_pressure;BME280_temperature;BME280_humidity;BME280_pressure;Samples;Min_cycle;Max_cycle;Signal;HPM_P1;HPM_P2
2023/01/06 00:01:17;;;;;;;0.40;0.40;;;10.00;99.90;;;;;;4978590;28;20582;-85
2023/01/06 00:03:47;;;;;;;0.50;0.50;;;10.00;99.90;;;;;;4960724;28;20054;-83
2023/01/06 00:06:12;;;;;;;0.60;0.60;;;10.00;99.90;;;;;;4962799;28;20049;-84
2023/01/06 00:08:39;;;;;;;0.32;0.32;;;10.00;99.90;;;;;;4981294;28;20054;-85
2023/01/06 00:11:10;;;;;;;0.30;0.30;;;10.10;99.90;;;;;;4963887;28;20100;-82
2023/01/06 00:13:37;;;;;;;3.20;0.80;;;10.00;99.90;;;;;;4990935;28;20042;-86
2023/01/06 00:16:12;;;;;;;0.40;0.40;;;10.00;99.90;;;;;;4946402;28;20100;-84
2023/01/06 00:18:38;;;;;;;0.40;0.40;;;10.10;99.90;;;;;;4977386;28;20381;-85
2023/01/06 00:21:04;;;;;;;;;;;10.10;99.90;;;;;;4964449;28;20042;-84
2023/01/06 00:23:30;;;;;;;0.40;0.40;;;10.10;99.90;;;;;;4994147;28;19926;-82
2023/01/06 00:25:56;;;;;;;;;;;10.10;99.90;;;;;;4979145;28;20054;-83
2023/01/06 00:28:22;;;;;;;0.32;0.32;;;10.10;99.90;;;;;;4982024;28;19926;-85
2023/01/06 00:30:47;;;;;;;0.50;0.50;;;10.10;99.90;;;;;;4980561;28;20092;-86
2023/01/06 00:33:13;;;;;;;1.65;0.98;;;10.20;99.90;;;;;;4982208;28;20050;-86
2023/01/06 00:35:39;;;;;;;0.75;0.75;;;10.10;99.90;;;;;;4982953;28;20184;-83
2023/01/06 00:38:05;;;;;;;1.35;1.02;;;10.20;99.90;;;;;;4965172;28;21111;-82
2023/01/06 00:40:37;;;;;;;0.50;0.50;;;10.20;99.90;;;;;;4983855;28;20133;-83
2023/01/06 00:43:03;;;;;;;;;;;10.20;99.90;;;;;;4952991;28;20034;-88
2023/01/06 00:45:30;;;;;;;1.08;0.98;;;10.20;99.90;;;;;;5000443;28;19922;-82
2023/01/06 00:47:56;;;;;;;0.88;0.88;;;10.20;99.90;;;;;;4984286;28;20053;-83
2023/01/06 00:50:22;;;;;;;1.42;1.33;;;10.20;99.90;;;;;;4984694;28;20392;-82
2023/01/06 00:52:48;;;;;;;0.40;0.40;;;10.20;99.90;;;;;;4981359;28;20093;-85
2023/01/06 00:55:13;;;;;;;0.80;0.80;;;10.20;99.90;;;;;;4982917;28;20115;-83
2023/01/06 00:57:39;;;;;;;1.48;1.38;;;10.30;99.90;;;;;;4965794;28;20086;-85
2023/01/06 01:00:09;;;;;;;0.75;0.75;;;10.30;99.90;;;;;;4984300;28;20042;-84
2023/01/06 01:02:35;;;;;;;0.47;0.47;;;10.30;99.90;;;;;;4985100;28;20049;-86
2023/01/06 01:05:00;;;;;;;0.40;0.40;;;10.30;99.90;;;;;;4986700;28;20046;-86
2023/01/06 01:07:26;;;;;;;0.82;0.63;;;10.30;99.90;;;;;;4986809;28;20051;-82
2023/01/06 01:09:52;;;;;;;0.50;0.50;;;10.30;99.90;;;;;;4985752;28;20038;-84
2023/01/06 01:12:18;;;;;;;0.55;0.55;;;10.30;99.90;;;;;;4971587;28;20539;-82
2023/01/06 01:14:54;;;;;;;1.42;0.93;;;10.30;99.90;;;;;;4988117;28;20045;-83
2023/01/06 01:17:25;;;;;;;0.40;0.40;;;10.30;99.90;;;;;;5003572;28;20073;-83
2023/01/06 01:19:54;;;;;;;0.68;0.68;;;10.30;99.90;;;;;;5001457;28;20046;-84
2023/01/06 01:22:21;;;;;;;0.63;0.63;;;10.30;99.90;;;;;;5003590;28;20046;-83
2023/01/06 01:24:48;;;;;;;0.73;0.73;;;10.30;99.90;;;;;;5005580;28;20381;-82
2023/01/06 01:27:15;;;;;;;0.50;0.50;;;10.40;99.90;;;;;;4976429;28;20846;-84
2023/01/06 01:29:41;;;;;;;0.75;0.75;;;10.40;99.90;;;;;;4985121;28;20050;-85
2023/01/06 01:32:07;;;;;;;0.43;0.43;;;10.30;99.90;;;;;;4986963;28;20034;-81
2023/01/06 01:34:33;;;;;;;0.40;0.40;;;10.30;99.90;;;;;;4972683;28;20053;-82
2023/01/06 01:36:59;;;;;;;;;;;10.30;99.90;;;;;;4971477;28;21380;-82
2023/01/06 01:39:26;;;;;;;0.93;0.93;;;10.30;99.90;;;;;;4986122;28;19925;-81
2023/01/06 01:41:54;;;;;;;0.40;0.40;;;10.30;99.90;;;;;;4990614;28;20046;-84
2023/01/06 01:44:50;;;;;;;0.40;0.40;;;10.30;99.90;;;;;;4985410;28;20061;-86
2023/01/06 01:47:25;;;;;;;0.65;0.65;;;10.30;99.90;;;;;;4986361;28;20530;-83
2023/01/06 01:49:55;;;;;;;0.73;0.73;;;10.30;99.90;;;;;;4985299;28;20038;-85
2023/01/06 01:52:22;;;;;;;0.50;0.50;;;10.40;99.90;;;;;;4986377;28;20034;-83
2023/01/06 01:54:50;;;;;;;0.43;0.43;;;10.30;99.90;;;;;;4988681;28;20077;-86
2023/01/06 01:57:20;;;;;;;0.28;0.28;;;10.40;99.90;;;;;;4988272;28;20050;-84
2023/01/06 01:59:46;;;;;;;0.30;0.30;;;10.40;99.90;;;;;;4987531;28;20511;-87
2023/01/06 02:02:17;;;;;;;0.32;0.32;;;10.40;99.90;;;;;;4988246;28;20054;-87
2023/01/06 02:04:47;;;;;;;0.50;0.50;;;10.30;99.90;;;;;;4987520;28;20050;-84
2023/01/06 02:07:13;;;;;;;0.70;0.70;;;10.30;99.90;;;;;;4989693;28;20041;-82
2023/01/06 02:09:45;;;;;;;0.63;0.63;;;10.30;99.90;;;;;;4970578;28;20038;-83
2023/01/06 02:12:12;;;;;;;0.70;0.70;;;10.30;99.90;;;;;;4973505;28;20583;-83
2023/01/06 02:14:38;;;;;;;0.47;0.47;;;10.30;99.90;;;;;;4972253;28;20035;-82
2023/01/06 02:17:06;;;;;;;0.40;0.40;;;10.30;99.90;;;;;;4984252;28;20399;-82
2023/01/06 02:19:53;;;;;;;0.55;0.55;;;10.30;99.90;;;;;;4969314;28;20400;-83
2023/01/06 02:22:39;;;;;;;;;;;10.40;99.90;;;;;;4985541;28;20050;-83
2023/01/06 02:25:39;;;;;;;0.40;0.40;;;10.30;99.90;;;;;;4969886;28;19927;-84
2023/01/06 02:28:40;;;;;;;0.50;0.50;;;10.30;99.90;;;;;;4965794;28;20126;-83
2023/01/06 02:31:27;;;;;;;0.75;0.75;;;10.30;99.90;;;;;;4984572;28;20484;-85
2023/01/06 02:34:03;;;;;;;;;;;10.30;99.90;;;;;;4966857;28;20063;-84
2023/01/06 02:36:52;;;;;;;1.85;1.75;;;10.30;99.90;;;;;;4983922;28;19929;-83
2023/01/06 02:39:43;;;;;;;0.40;0.40;;;10.30;99.90;;;;;;4981827;28;20049;-85
2023/01/06 02:42:26;;;;;;;0.68;0.68;;;10.20;99.90;;;;;;4983576;28;20077;-86
2023/01/06 02:45:20;;;;;;;0.47;0.47;;;10.30;99.90;;;;;;4982975;28;20038;-83
2023/01/06 02:48:07;;;;;;;0.43;0.43;;;10.30;99.90;;;;;;4983573;28;20057;-84
2023/01/06 02:50:32;;;;;;;;;;;10.30;99.90;;;;;;4983305;28;20476;-86
2023/01/06 02:53:22;;;;;;;0.50;0.50;;;10.30;99.90;;;;;;5006180;28;19925;-87
2023/01/06 02:55:50;;;;;;;0.65;0.52;;;10.20;99.90;;;;;;4970322;28;20050;-84
2023/01/06 02:58:48;;;;;;;0.40;0.40;;;10.20;99.90;;;;;;4983699;28;20077;-87
2023/01/06 03:01:26;;;;;;;0.40;0.40;;;10.20;99.90;;;;;;4969078;28;20042;-84
2023/01/06 03:03:54;;;;;;;0.40;0.40;;;10.30;99.90;;;;;;4985707;28;20042;-85
2023/01/06 03:06:29;;;;;;;0.40;0.40;;;10.20;99.90;;;;;;4985359;28;20034;-87
2023/01/06 03:08:57;;;;;;;0.82;0.82;;;10.20;99.90;;;;;;5000883;28;20044;-85
2023/01/06 03:11:25;;;;;;;1.10;0.50;;;10.20;99.90;;;;;;4984467;28;20108;-83
2023/01/06 03:14:13;;;;;;;0.40;0.40;;;10.20;99.90;;;;;;4969079;28;20765;-87
2023/01/06 03:16:39;;;;;;;0.43;0.43;;;10.20;99.90;;;;;;4983941;28;20383;-84
2023/01/06 03:19:05;;;;;;;0.88;0.88;;;10.20;99.90;;;;;;4967714;28;20043;-85
2023/01/06 03:21:35;;;;;;;0.98;0.93;;;10.20;99.90;;;;;;4997175;28;20038;-84
2023/01/06 03:24:05;;;;;;;3.50;3.22;;;10.20;99.90;;;;;;4983077;28;20116;-86
2023/01/06 03:26:33;;;;;;;0.57;0.57;;;10.20;99.90;;;;;;4984099;28;20113;-85
2023/01/06 03:28:59;;;;;;;0.40;0.40;;;10.20;99.90;;;;;;4932699;28;1117104;-87
2023/01/06 03:31:53;;;;;;;0.40;0.40;;;10.20;99.90;;;;;;4969957;28;20491;-84
2023/01/06 03:34:44;;;;;;;0.40;0.40;;;10.20;99.90;;;;;;5003764;28;20403;-83
2023/01/06 03:37:19;;;;;;;0.35;0.35;;;10.10;99.90;;;;;;5005777;28;20133;-85
2023/01/06 03:40:07;;;;;;;0.47;0.47;;;10.10;99.90;;;;;;4971524;28;20817;-87
2023/01/06 03:45:38;;;;;;;0.40;0.40;;;10.10;99.90;;;;;;4984954;28;20074;-87
2023/01/06 03:48:26;;;;;;;0.55;0.55;;;10.10;99.90;;;;;;4984798;28;20141;-85
2023/01/06 03:50:56;;;;;;;0.55;0.55;;;10.10;99.90;;;;;;4986314;28;20500;-86
2023/01/06 03:53:45;;;;;;;0.93;0.93;;;10.00;99.90;;;;;;4981989;28;20057;-84
2023/01/06 03:56:28;;;;;;;0.70;0.70;;;10.10;99.90;;;;;;4978419;28;20064;-86
2023/01/06 03:58:57;;;;;;;0.40;0.40;;;10.10;99.90;;;;;;4987198;28;20043;-84
2023/01/06 04:01:25;;;;;;;0.73;0.73;;;10.10;99.90;;;;;;4984737;28;20100;-84
2023/01/06 04:03:52;;;;;;;0.40;0.40;;;10.10;99.90;;;;;;4986417;28;20089;-83
2023/01/06 04:06:18;;;;;;;0.95;0.80;;;10.10;99.90;;;;;;4995691;28;20132;-82
2023/01/06 04:08:43;;;;;;;0.43;0.43;;;10.10;99.90;;;;;;4997797;28;20125;-86
2023/01/06 04:12:37;;;;;;;0.50;0.50;;;10.10;99.90;;;;;;4985016;28;20054;-84
2023/01/06 04:14:02;;;;;;;0.60;0.60;;;10.10;99.90;;;;;;4991015;28;20506;-84
2023/01/06 04:16:28;;;;;;;1.05;1.05;;;10.10;99.90;;;;;;4968935;28;20070;-85
2023/01/06 04:18:55;;;;;;;1.30;1.20;;;10.10;99.90;;;;;;4969375;28;20053;-86
2023/01/06 04:21:20;;;;;;;0.47;0.47;;;10.10;99.90;;;;;;4996648;28;20042;-83
2023/01/06 04:23:46;;;;;;;1.83;0.93;;;10.10;99.90;;;;;;4964363;28;20049;-86
2023/01/06 04:26:13;;;;;;;0.52;0.52;;;10.00;99.90;;;;;;4980051;28;20038;-85
2023/01/06 04:28:39;;;;;;;0.40;0.40;;;10.00;99.90;;;;;;4978776;28;20153;-84
2023/01/06 04:31:05;;;;;;;3.08;0.80;;;10.60;99.90;;;;;;4964885;28;20456;-88
2023/01/06 04:33:32;;;;;;;0.70;0.70;;;10.00;99.90;;;;;;4986895;28;20046;-86
2023/01/06 04:35:58;;;;;;;0.40;0.40;;;10.00;99.90;;;;;;4969091;28;20132;-85
2023/01/06 04:38:23;;;;;;;0.73;0.60;;;10.10;99.90;;;;;;4970725;28;20068;-83
2023/01/06 04:40:49;;;;;;;1.70;1.60;;;10.10;99.90;;;;;;4969098;28;20056;-84
2023/01/06 04:43:15;;;;;;;0.60;0.60;;;10.10;99.90;;;;;;4986027;28;20932;-85
2023/01/06 04:45:42;;;;;;;0.55;0.55;;;10.10;99.90;;;;;;4972163;28;20100;-82
2023/01/06 04:48:12;;;;;;;0.52;0.52;;;10.10;99.90;;;;;;4975613;28;20038;-85
2023/01/06 04:50:38;;;;;;;0.65;0.65;;;10.10;99.90;;;;;;4992673;28;20058;-85
2023/01/06 04:53:05;;;;;;;0.43;0.43;;;10.10;99.90;;;;;;4958542;28;20050;-84
2023/01/06 04:55:38;;;;;;;0.57;0.57;;;10.10;99.90;;;;;;4989696;28;20093;-83
2023/01/06 04:58:04;;;;;;;0.40;0.40;;;10.10;99.90;;;;;;4971068;28;20615;-82
2023/01/06 05:00:30;;;;;;;0.40;0.40;;;10.10;99.90;;;;;;4986750;28;20134;-84
2023/01/06 05:02:55;;;;;;;0.50;0.38;;;10.10;99.90;;;;;;5002093;28;20053;-86
2023/01/06 05:05:21;;;;;;;0.47;0.47;;;10.10;99.90;;;;;;4956603;28;20069;-85
2023/01/06 05:07:47;;;;;;;0.32;0.32;;;10.10;99.90;;;;;;4985729;28;20049;-83
2023/01/06 05:10:13;;;;;;;0.63;0.63;;;10.10;99.90;;;;;;4967786;28;20045;-84
2023/01/06 05:12:39;;;;;;;0.70;0.70;;;10.10;99.90;;;;;;4983890;28;20046;-83
2023/01/06 05:15:05;;;;;;;0.80;0.80;;;10.10;99.90;;;;;;4983258;28;20057;-83
2023/01/06 05:17:30;;;;;;;;;;;10.10;99.90;;;;;;4984581;28;20054;-82
2023/01/06 05:19:56;;;;;;;0.35;0.35;;;10.10;99.90;;;;;;4983619;28;19929;-85
2023/01/06 05:22:22;;;;;;;0.60;0.60;;;10.10;99.90;;;;;;4984914;28;20054;-86
2023/01/06 05:24:47;;;;;;;0.40;0.40;;;10.20;99.90;;;;;;4970321;28;21691;-84
2023/01/06 05:27:13;;;;;;;0.50;0.50;;;10.10;99.90;;;;;;4985988;28;20373;-81
2023/01/06 05:29:39;;;;;;;0.30;0.30;;;10.10;99.90;;;;;;4983185;28;20173;-82
2023/01/06 05:32:05;;;;;;;0.40;0.40;;;10.10;99.90;;;;;;4968755;28;20500;-83
2023/01/06 05:34:30;;;;;;;1.45;1.00;;;10.10;99.90;;;;;;4969177;28;20050;-87
2023/01/06 05:36:56;;;;;;;0.40;0.40;;;10.20;99.90;;;;;;5004002;28;20088;-81
2023/01/06 05:39:23;;;;;;;0.40;0.40;;;10.20;99.90;;;;;;4984187;28;20104;-81
2023/01/06 05:41:48;;;;;;;0.40;0.40;;;10.20;99.90;;;;;;4969559;28;20487;-86
2023/01/06 05:44:14;;;;;;;0.82;0.82;;;10.20;99.90;;;;;;4969538;28;20053;-84
2023/01/06 05:46:40;;;;;;;0.38;0.38;;;10.20;99.90;;;;;;4985954;28;20069;-86
2023/01/06 05:49:05;;;;;;;0.40;0.40;;;10.20;99.90;;;;;;4968570;28;20045;-83
2023/01/06 05:51:31;;;;;;;0.50;0.50;;;10.20;99.90;;;;;;4986624;28;20049;-83
2023/01/06 05:53:57;;;;;;;0.95;0.95;;;10.10;99.90;;;;;;4971235;28;20063;-86
2023/01/06 05:56:23;;;;;;;0.40;0.40;;;10.10;99.90;;;;;;4975552;28;20066;-85
2023/01/06 05:58:51;;;;;;;1.42;1.38;;;10.00;99.90;;;;;;4970882;28;20035;-85
2023/01/06 06:01:30;;;;;;;0.90;0.90;;;10.00;99.90;;;;;;4986761;28;20035;-85
2023/01/06 06:03:56;;;;;;;0.80;0.80;;;9.90;99.90;;;;;;4985553;28;20045;-85
2023/01/06 06:06:23;;;;;;;0.93;0.88;;;9.80;99.90;;;;;;4988711;28;20037;-83
2023/01/06 06:08:49;;;;;;;6.35;0.88;;;9.80;99.90;;;;;;4988818;28;20077;-86
2023/01/06 06:11:17;;;;;;;0.50;0.50;;;9.70;99.90;;;;;;4985497;28;20173;-83
2023/01/06 06:13:54;;;;;;;0.50;0.50;;;9.60;99.90;;;;;;4985996;28;20042;-86
2023/01/06 06:16:23;;;;;;;0.30;0.30;;;9.60;99.90;;;;;;4984176;28;20053;-84
2023/01/06 06:18:57;;;;;;;0.65;0.65;;;9.50;99.90;;;;;;4984310;28;20042;-85
2023/01/06 06:21:25;;;;;;;0.47;0.47;;;9.50;99.90;;;;;;4987012;28;20065;-85
2023/01/06 06:23:55;;;;;;;0.77;0.77;;;9.50;99.90;;;;;;5001772;28;20031;-84
2023/01/06 06:26:21;;;;;;;1.20;0.98;;;9.60;99.90;;;;;;4987523;28;20073;-86
2023/01/06 06:28:47;;;;;;;;;;;9.50;99.90;;;;;;4988338;28;20065;-87
2023/01/06 06:31:16;;;;;;;0.60;0.60;;;9.50;99.90;;;;;;4987641;28;19918;-86
2023/01/06 06:33:43;;;;;;;0.50;0.50;;;9.50;99.90;;;;;;4987505;28;20041;-83
2023/01/06 06:36:14;;;;;;;0.80;0.80;;;9.50;99.90;;;;;;4992661;28;20408;-85
2023/01/06 06:38:44;;;;;;;0.60;0.60;;;9.50;99.90;;;;;;4978968;28;20061;-84
2023/01/06 06:41:11;;;;;;;0.90;0.43;;;9.50;99.90;;;;;;4991750;28;20162;-85
2023/01/06 06:43:37;;;;;;;0.40;0.40;;;9.50;99.90;;;;;;4995389;28;20045;-86
2023/01/06 06:46:04;;;;;;;0.30;0.30;;;9.50;99.90;;;;;;4959975;28;20042;-88
2023/01/06 06:48:30;;;;;;;0.40;0.40;;;9.50;99.90;;;;;;4991061;28;21602;-86
2023/01/06 06:51:03;;;;;;;0.50;0.50;;;9.50;99.90;;;;;;4974017;28;20042;-86
2023/01/06 06:53:29;;;;;;;0.35;0.35;;;9.40;99.90;;;;;;4990917;28;20066;-86
2023/01/06 06:55:55;;;;;;;0.40;0.40;;;9.50;99.90;;;;;;4993925;28;20500;-86
2023/01/06 06:58:21;;;;;;;0.60;0.60;;;9.40;99.90;;;;;;4993153;28;20038;-85
2023/01/06 07:00:48;;;;;;;0.50;0.50;;;9.40;99.90;;;;;;4991912;28;21052;-87
2023/01/06 07:03:13;;;;;;;0.40;0.40;;;9.40;99.90;;;;;;4972149;28;20053;-86
2023/01/06 07:05:44;;;;;;;0.55;0.55;;;9.40;99.90;;;;;;4970896;28;20078;-83
2023/01/06 07:08:11;;;;;;;0.43;0.43;;;9.40;99.90;;;;;;4991863;28;20054;-87
2023/01/06 07:10:36;;;;;;;0.40;0.40;;;9.40;99.90;;;;;;4990637;28;20042;-82
2023/01/06 07:13:02;;;;;;;0.50;0.50;;;9.40;99.90;;;;;;4985660;28;20038;-85
2023/01/06 07:15:28;;;;;;;0.40;0.40;;;9.40;99.90;;;;;;4984368;28;20553;-87
2023/01/06 07:17:54;;;;;;;0.32;0.32;;;9.40;99.90;;;;;;4988859;28;20049;-85
2023/01/06 07:20:19;;;;;;;0.50;0.50;;;9.40;99.90;;;;;;4984751;28;20574;-88
2023/01/06 07:22:45;;;;;;;0.40;0.40;;;9.50;99.90;;;;;;5003174;28;20122;-87
2023/01/06 07:25:11;;;;;;;;;;;9.50;99.90;;;;;;4984716;28;20563;-88
2023/01/06 07:27:37;;;;;;;0.40;0.40;;;9.50;99.90;;;;;;4986257;28;19918;-87
2023/01/06 07:30:09;;;;;;;0.40;0.40;;;9.50;99.90;;;;;;4971531;28;20050;-86
2023/01/06 07:32:35;;;;;;;0.50;0.50;;;9.50;99.90;;;;;;4972991;28;20057;-87
2023/01/06 07:35:00;;;;;;;0.50;0.50;;;9.50;99.90;;;;;;4971659;28;20038;-87
2023/01/06 07:37:26;;;;;;;0.50;0.50;;;9.50;99.90;;;;;;4990308;28;20038;-86
2023/01/06 07:39:52;;;;;;;0.57;0.57;;;9.50;99.90;;;;;;4969543;28;20097;-86
2023/01/06 07:42:17;;;;;;;0.50;0.50;;;9.50;99.90;;;;;;4970127;28;20050;-87
2023/01/06 07:44:43;;;;;;;0.25;0.25;;;9.50;99.90;;;;;;4962097;28;20029;-87
2023/01/06 07:47:09;;;;;;;0.50;0.50;;;9.50;99.90;;;;;;4972929;28;20668;-86
2023/01/06 07:49:38;;;;;;;0.40;0.40;;;9.60;99.90;;;;;;4998305;28;20046;-87
2023/01/06 07:52:04;;;;;;;0.43;0.43;;;9.50;99.90;;;;;;4972371;28;20407;-85
2023/01/06 07:54:30;;;;;;;0.60;0.60;;;9.40;99.90;;;;;;4969890;28;20149;-85
2023/01/06 07:56:58;;;;;;;0.52;0.52;;;9.30;99.90;;;;;;4950591;28;20413;-84
2023/01/06 07:59:24;;;;;;;0.50;0.50;;;9.20;99.90;;;;;;4980384;28;20076;-83
2023/01/06 08:01:50;;;;;;;0.40;0.40;;;9.10;99.90;;;;;;4997816;28;20590;-84
2023/01/06 08:04:15;;;;;;;0.50;0.50;;;9.00;99.90;;;;;;4983114;28;20046;-84
2023/01/06 08:06:41;;;;;;;0.50;0.50;;;8.90;99.90;;;;;;4982078;28;20500;-83
2023/01/06 08:09:07;;;;;;;0.68;0.68;;;8.90;99.90;;;;;;4985597;28;20111;-85
2023/01/06 08:11:33;;;;;;;0.50;0.50;;;8.90;99.90;;;;;;4985408;28;20042;-84
2023/01/06 08:13:59;;;;;;;0.35;0.35;;;8.80;99.90;;;;;;4983454;28;20045;-83
2023/01/06 08:16:24;;;;;;;0.50;0.50;;;8.70;99.90;;;;;;4968168;28;20046;-87
2023/01/06 08:18:50;;;;;;;0.40;0.40;;;8.60;99.90;;;;;;4970466;28;20053;-83
2023/01/06 08:21:16;;;;;;;0.50;0.50;;;8.50;99.90;;;;;;4988374;28;20099;-82
2023/01/06 08:23:42;;;;;;;0.50;0.50;;;8.40;99.90;;;;;;4973129;28;20042;-83
2023/01/06 08:26:12;;;;;;;0.60;0.60;;;8.30;99.90;;;;;;4986552;28;20039;-82
2023/01/06 08:28:38;;;;;;;0.50;0.50;;;8.20;99.90;;;;;;4986491;28;20073;-83
2023/01/06 08:31:09;;;;;;;0.60;0.60;;;8.20;99.90;;;;;;5004269;28;20134;-84
2023/01/06 08:33:35;;;;;;;0.47;0.47;;;8.00;99.90;;;;;;4986318;28;20042;-83
2023/01/06 08:36:03;;;;;;;0.50;0.50;;;8.00;99.90;;;;;;4988656;28;20046;-84
2023/01/06 08:38:29;;;;;;;0.40;0.40;;;7.90;99.90;;;;;;4990086;28;20483;-86
2023/01/06 08:40:56;;;;;;;0.50;0.50;;;7.80;99.90;;;;;;4985768;28;20048;-85
2023/01/06 08:43:23;;;;;;;0.40;0.40;;;7.80;99.90;;;;;;4988041;28;20042;-87
2023/01/06 08:45:49;;;;;;;0.43;0.43;;;7.70;99.90;;;;;;5006195;28;20093;-85
2023/01/06 08:48:15;;;;;;;;;;;7.60;99.90;;;;;;4983845;28;20476;-85
2023/01/06 08:50:41;;;;;;;0.40;0.40;;;7.70;99.90;;;;;;4990221;28;19918;-84
2023/01/06 08:53:08;;;;;;;0.50;0.50;;;7.70;99.90;;;;;;4966285;28;20086;-81
2023/01/06 08:55:37;;;;;;;0.50;0.50;;;7.70;99.90;;;;;;4985137;28;20038;-86
2023/01/06 08:58:03;;;;;;;0.50;0.50;;;7.70;99.90;;;;;;5000750;28;20077;-83
2023/01/06 09:00:29;;;;;;;0.40;0.40;;;7.70;99.90;;;;;;4990043;28;20031;-84
2023/01/06 09:02:55;;;;;;;0.50;0.50;;;7.70;99.90;;;;;;4968647;28;20053;-85
2023/01/06 09:05:20;;;;;;;0.50;0.50;;;7.70;99.90;;;;;;4973328;28;20113;-85
2023/01/06 09:07:46;;;;;;;0.50;0.50;;;7.70;99.90;;;;;;4986508;28;20037;-86
2023/01/06 09:10:12;;;;;;;0.63;0.63;;;7.70;99.90;;;;;;4975328;28;20038;-82
2023/01/06 09:12:38;;;;;;;0.40;0.40;;;7.70;99.90;;;;;;4974993;28;20041;-83
2023/01/06 09:15:04;;;;;;;0.50;0.50;;;7.70;99.90;;;;;;4981144;28;20097;-85
2023/01/06 09:17:30;;;;;;;0.43;0.43;;;7.70;99.90;;;;;;4972659;28;20046;-83
2023/01/06 09:19:55;;;;;;;0.40;0.40;;;9.00;99.90;;;;;;5009705;28;20057;-82
2023/01/06 09:22:21;;;;;;;0.60;0.60;;;7.70;99.90;;;;;;4977678;28;20436;-84
2023/01/06 09:24:47;;;;;;;0.70;0.70;;;7.70;99.90;;;;;;4961574;28;20042;-85
2023/01/06 09:27:13;;;;;;;0.40;0.40;;;7.70;99.90;;;;;;4971510;28;20167;-84
2023/01/06 09:29:39;;;;;;;;;;;7.80;99.90;;;;;;5009607;28;20507;-85
2023/01/06 09:32:05;;;;;;;0.60;0.60;;;7.80;99.90;;;;;;4991927;28;19922;-85
2023/01/06 09:34:31;;;;;;;0.60;0.60;;;7.90;99.90;;;;;;4996209;28;20038;-84
2023/01/06 09:36:57;;;;;;;0.50;0.50;;;7.90;99.90;;;;;;4986210;28;20100;-82
2023/01/06 09:39:23;;;;;;;0.60;0.60;;;8.00;99.90;;;;;;4990748;28;20050;-84
2023/01/06 09:42:29;;;;;;;0.50;0.50;;;8.00;99.90;;;;;;4993705;28;20735;-83
2023/01/06 09:45:01;;;;;;;0.52;0.52;;;8.00;99.90;;;;;;5011414;28;20695;-84
2023/01/06 09:47:34;;;;;;;0.40;0.40;;;8.10;99.90;;;;;;4992704;28;20050;-83
2023/01/06 09:50:11;;;;;;;0.50;0.50;;;8.10;99.90;;;;;;4989733;28;20062;-83
2023/01/06 09:52:42;;;;;;;0.50;0.50;;;8.30;99.90;;;;;;4989725;28;20050;-82
2023/01/06 09:55:24;;;;;;;0.50;0.50;;;8.40;99.90;;;;;;4978012;28;20400;-83
2023/01/06 09:58:02;;;;;;;0.60;0.60;;;8.40;99.90;;;;;;4990665;28;20106;-84
2023/01/06 10:00:41;;;;;;;0.32;0.32;;;8.50;99.90;;;;;;4992112;28;20054;-85
2023/01/06 10:03:14;;;;;;;0.43;0.43;;;8.60;99.90;;;;;;4989218;28;20042;-82
2023/01/06 10:06:22;;;;;;;0.38;0.38;;;8.60;99.90;;;;;;4977075;28;20045;-85
2023/01/06 10:09:18;;;;;;;0.40;0.40;;;8.60;99.90;;;;;;4906175;29;20054;-84
2023/01/06 10:11:58;;;;;;;0.50;0.50;;;8.60;99.90;;;;;;4989891;28;20061;-83
2023/01/06 10:14:48;;;;;;;0.50;0.50;;;8.60;99.90;;;;;;4993206;28;20117;-82
2023/01/06 10:17:25;;;;;;;0.50;0.50;;;8.50;99.90;;;;;;4993001;28;20054;-82
2023/01/06 10:20:29;;;;;;;0.50;0.50;;;8.60;99.90;;;;;;5012098;28;20054;-85
2023/01/06 10:23:02;;;;;;;0.30;0.30;;;8.60;99.90;;;;;;4974502;28;20046;-84
2023/01/06 10:25:42;;;;;;;0.52;0.52;;;8.60;99.90;;;;;;4993175;28;20038;-86
2023/01/06 10:28:28;;;;;;;0.45;0.45;;;8.60;99.90;;;;;;4993093;28;20062;-86
2023/01/06 10:30:58;;;;;;;0.40;0.40;;;8.60;99.90;;;;;;4987119;28;20396;-83
2023/01/06 10:33:26;;;;;;;0.40;0.40;;;8.50;99.90;;;;;;4989113;28;20042;-84
2023/01/06 10:35:54;;;;;;;0.47;0.47;;;8.50;99.90;;;;;;4991741;28;20098;-87
2023/01/06 10:38:38;;;;;;;0.70;0.70;;;8.60;99.90;;;;;;5002810;28;20611;-81
2023/01/06 10:41:18;;;;;;;0.63;0.63;;;8.60;99.90;;;;;;5001564;28;20069;-82
2023/01/06 10:43:44;;;;;;;0.40;0.40;;;8.70;99.90;;;;;;5002648;28;20070;-84
2023/01/06 10:46:14;;;;;;;0.50;0.50;;;8.70;99.90;;;;;;4968772;28;20088;-82
2023/01/06 10:48:40;;;;;;;0.40;0.40;;;8.70;99.90;;;;;;4985113;28;20042;-84
2023/01/06 10:51:33;;;;;;;0.40;0.40;;;8.70;99.90;;;;;;4986724;28;20096;-85
2023/01/06 10:54:13;;;;;;;0.40;0.40;;;8.70;99.90;;;;;;4987017;28;20369;-84
2023/01/06 10:56:44;;;;;;;0.47;0.47;;;8.70;99.90;;;;;;4974864;28;20046;-83
2023/01/06 10:59:11;;;;;;;2.35;1.58;;;8.80;99.90;;;;;;4994864;28;20082;-82
2023/01/06 11:01:49;;;;;;;0.52;0.52;;;8.80;99.90;;;;;;4993705;28;20046;-86
2023/01/06 11:04:16;;;;;;;0.30;0.30;;;8.90;99.90;;;;;;4992279;28;20042;-87
2023/01/06 11:07:02;;;;;;;0.60;0.60;;;8.90;99.90;;;;;;4992424;28;20042;-84
2023/01/06 11:09:31;;;;;;;0.40;0.40;;;8.90;99.90;;;;;;4993118;28;20488;-83
2023/01/06 11:12:01;;;;;;;1.55;1.45;;;8.90;99.90;;;;;;4994083;28;20054;-83
2023/01/06 11:14:32;;;;;;;0.40;0.40;;;9.00;99.90;;;;;;4998944;28;20049;-82
2023/01/06 11:17:12;;;;;;;0.50;0.50;;;9.10;99.90;;;;;;4990841;28;20120;-85
2023/01/06 11:19:41;;;;;;;0.40;0.40;;;9.20;99.90;;;;;;4990113;28;20049;-85
2023/01/06 11:22:45;;;;;;;0.50;0.50;;;9.40;99.90;;;;;;4978270;28;20049;-82
2023/01/06 11:25:22;;;;;;;0.40;0.40;;;9.50;99.90;;;;;;4926261;29;20051;-82
2023/01/06 11:28:16;;;;;;;0.50;0.50;;;9.60;99.90;;;;;;4932656;29;20043;-87
2023/01/06 11:30:48;;;;;;;0.40;0.40;;;9.60;99.90;;;;;;4948716;28;20047;-84
2023/01/06 11:33:20;;;;;;;0.50;0.50;;;9.70;99.90;;;;;;4953497;29;20507;-85
2023/01/06 11:35:47;;;;;;;0.40;0.40;;;9.70;99.90;;;;;;4949780;28;20071;-84
2023/01/06 11:38:17;;;;;;;0.40;0.40;;;9.70;99.90;;;;;;4946379;29;20067;-81
2023/01/06 11:40:48;;;;;;;0.40;0.40;;;9.70;99.90;;;;;;4964362;29;20108;-81
2023/01/06 11:43:17;;;;;;;0.40;0.40;;;9.70;99.90;;;;;;4967199;29;20089;-79
2023/01/06 11:45:53;;;;;;;0.80;0.80;;;9.70;99.90;;;;;;4942158;28;20046;-83
2023/01/06 11:48:24;;;;;;;0.50;0.50;;;9.60;99.90;;;;;;4970358;28;20129;-84
2023/01/06 11:50:52;;;;;;;4.57;2.28;;;9.60;99.90;;;;;;4953763;29;20551;-85
2023/01/06 11:53:20;;;;;;;0.50;0.50;;;9.60;99.90;;;;;;4953571;28;20074;-86
2023/01/06 11:56:04;;;;;;;0.30;0.30;;;9.60;99.90;;;;;;4951588;28;20496;-84
2023/01/06 11:58:39;;;;;;;0.40;0.40;;;9.70;99.90;;;;;;4950414;28;20135;-86
2023/01/06 12:01:56;;;;;;;0.22;0.22;;;9.70;99.90;;;;;;4953938;28;20100;-83
2023/01/06 12:04:43;;;;;;;0.30;0.30;;;9.70;99.90;;;;;;4942371;28;20047;-85
2023/01/06 12:07:24;;;;;;;0.30;0.30;;;9.70;99.90;;;;;;4954459;28;20063;-80
2023/01/06 12:09:51;;;;;;;0.43;0.43;;;9.70;99.90;;;;;;4956033;28;20075;-85
2023/01/06 12:12:25;;;;;;;0.43;0.40;;;9.70;99.90;;;;;;4950614;28;20075;-84
2023/01/06 12:14:50;;;;;;;0.57;0.57;;;9.70;99.90;;;;;;4952736;28;20057;-84
2023/01/06 12:17:42;;;;;;;0.30;0.30;;;9.60;99.90;;;;;;4950790;29;20047;-83
2023/01/06 12:20:36;;;;;;;0.50;0.50;;;9.60;99.90;;;;;;4951314;29;20453;-84
2023/01/06 12:23:36;;;;;;;0.40;0.40;;;9.60;99.90;;;;;;4949618;28;20059;-85
2023/01/06 12:26:08;;;;;;;0.40;0.40;;;9.50;99.90;;;;;;4942725;29;20055;-84
2023/01/06 12:28:40;;;;;;;0.55;0.55;;;9.50;99.90;;;;;;4963052;28;20050;-84
2023/01/06 12:31:29;;;;;;;0.95;0.63;;;9.50;99.90;;;;;;5005170;28;20042;-85
2023/01/06 12:34:07;;;;;;;0.40;0.40;;;9.40;99.90;;;;;;4987259;28;20050;-83
2023/01/06 12:36:50;;;;;;;0.30;0.30;;;9.40;99.90;;;;;;4988374;28;20038;-83
2023/01/06 12:39:28;;;;;;;0.60;0.60;;;9.50;99.90;;;;;;4987018;28;20092;-86
2023/01/06 12:41:59;;;;;;;0.55;0.55;;;9.50;99.90;;;;;;4982656;28;20069;-84
2023/01/06 12:44:52;;;;;;;0.55;0.55;;;9.50;99.90;;;;;;4989628;28;20046;-84
2023/01/06 12:47:42;;;;;;;0.45;0.45;;;9.50;99.90;;;;;;4988672;28;20105;-87
2023/01/06 12:50:30;;;;;;;0.40;0.40;;;9.50;99.90;;;;;;4993360;28;20046;-86
2023/01/06 12:53:17;;;;;;;0.40;0.40;;;9.40;99.90;;;;;;4988967;28;20092;-84
2023/01/06 12:56:24;;;;;;;2.45;0.63;;;9.40;99.90;;;;;;5003708;28;20090;-87
2023/01/06 12:59:13;;;;;;;0.40;0.40;;;9.50;99.90;;;;;;4989388;28;20600;-83
2023/01/06 13:01:49;;;;;;;0.20;0.20;;;9.40;99.90;;;;;;4975952;28;20045;-82
2023/01/06 13:04:40;;;;;;;0.30;0.30;;;9.50;99.90;;;;;;4989099;28;20538;-84
2023/01/06 13:07:24;;;;;;;0.43;0.43;;;9.30;99.90;;;;;;4950466;28;20042;-82
2023/01/06 13:10:17;;;;;;;0.40;0.40;;;9.60;99.90;;;;;;4980153;28;20089;-84
2023/01/06 13:13:14;;;;;;;0.40;0.40;;;9.60;99.90;;;;;;4975665;28;20054;-83
2023/01/06 13:15:43;;;;;;;0.38;0.38;;;9.60;99.90;;;;;;4968218;28;20447;-82
2023/01/06 13:18:24;;;;;;;1.00;1.00;;;9.50;99.90;;;;;;4990130;28;20054;-83
2023/01/06 13:21:10;;;;;;;0.47;0.47;;;9.50;99.90;;;;;;4989832;28;20061;-85
2023/01/06 13:23:54;;;;;;;0.87;0.87;;;9.40;99.90;;;;;;4984033;28;20057;-83